createdAt,value
2018-07-23T00:00:59.915Z,78.43
2018-07-23T00:03:29.451Z,78.80
2018-07-23T00:05:59.031Z,78.80
2018-07-23T00:08:28.220Z,79.53
2018-07-23T00:10:57.419Z,79.18
2018-07-23T00:13:26.705Z,79.78
2018-07-23T00:15:55.967Z,79.39
2018-07-23T00:18:26.047Z,80.10
2018-07-23T00:20:55.195Z,79.84
2018-07-23T00:23:24.577Z,80.03
2018-07-23T00:25:53.865Z,80.48
2018-07-23T00:28:23.055Z,79.96
2018-07-23T00:30:52.380Z,80.06
2018-07-23T00:33:21.631Z,80.09
2018-07-23T00:35:50.798Z,79.78
2018-07-23T00:38:19.991Z,79.67
2018-07-23T00:40:49.287Z,80.82
2018-07-23T00:43:18.483Z,80.77
2018-07-23T00:45:47.682Z,80.28
2018-07-23T00:48:16.870Z,80.29
2018-07-23T00:50:46.474Z,80.52
2018-07-23T00:53:15.686Z,80.71
2018-07-23T00:55:44.867Z,80.68
2018-07-23T00:58:14.038Z,80.81
2018-07-23T01:00:43.476Z,80.76
2018-07-23T01:03:13.551Z,80.50
2018-07-23T01:05:42.756Z,81.02
2018-07-23T01:08:11.947Z,80.92
2018-07-23T01:10:41.122Z,81.07
2018-07-23T01:13:10.590Z,81.05
2018-07-23T01:15:39.771Z,80.36
2018-07-23T01:18:08.995Z,80.57
2018-07-23T01:20:38.154Z,81.14
2018-07-23T01:23:07.346Z,80.99
2018-07-23T01:25:36.551Z,81.04
2018-07-23T01:28:05.842Z,81.61
2018-07-23T01:30:35.003Z,81.60
2018-07-23T01:33:04.667Z,81.80
2018-07-23T01:35:33.834Z,81.45
2018-07-23T01:38:03.039Z,81.21
2018-07-23T01:40:32.215Z,81.09
2018-07-23T01:43:01.434Z,81.06
2018-07-23T01:45:30.627Z,81.19
2018-07-23T01:47:59.795Z,81.57
2018-07-23T01:50:28.979Z,82.18
2018-07-23T01:52:58.151Z,82.50
2018-07-23T01:55:27.343Z,82.74
2018-07-23T01:57:56.848Z,82.59
2018-07-23T02:00:26.039Z,81.94
2018-07-23T02:02:55.198Z,82.08
2018-07-23T02:05:24.535Z,82.21
2018-07-23T02:07:53.694Z,81.70
2018-07-23T02:10:22.983Z,82.16
2018-07-23T02:12:52.358Z,82.14
2018-07-23T02:15:21.571Z,82.31
2018-07-23T02:17:51.003Z,82.49
2018-07-23T02:20:20.578Z,82.35
2018-07-23T02:22:50.054Z,82.60
2018-07-23T02:25:19.254Z,81.72
2018-07-23T02:27:48.550Z,82.73
2018-07-23T02:30:17.739Z,82.56
2018-07-23T02:32:46.909Z,82.41
2018-07-23T02:35:16.103Z,82.90
2018-07-23T02:37:45.275Z,82.66
2018-07-23T02:40:14.495Z,83.65
2018-07-23T02:42:44.012Z,83.31
2018-07-23T02:45:13.195Z,83.60
2018-07-23T02:47:42.375Z,83.14
2018-07-23T02:50:11.570Z,83.15
2018-07-23T02:52:41.030Z,82.73
2018-07-23T02:55:10.575Z,83.11
2018-07-23T02:57:39.751Z,83.58
2018-07-23T03:00:08.976Z,83.48
2018-07-23T03:02:38.259Z,83.91
2018-07-23T03:05:07.454Z,83.60
2018-07-23T03:07:36.631Z,83.80
2018-07-23T03:10:05.992Z,83.38
2018-07-23T03:12:35.202Z,83.15
2018-07-23T03:15:05.067Z,82.86
2018-07-23T03:17:34.488Z,83.39
2018-07-23T03:20:03.842Z,83.48
2018-07-23T03:22:33.100Z,83.85
2018-07-23T03:25:02.556Z,83.22
2018-07-23T03:27:31.727Z,82.93
2018-07-23T03:30:01.555Z,83.52
2018-07-23T03:32:31.059Z,83.66
2018-07-23T03:35:00.363Z,83.60
2018-07-23T03:37:29.539Z,83.38
2018-07-23T03:39:58.722Z,83.79
2018-07-23T03:42:28.096Z,83.44
2018-07-23T03:44:57.310Z,83.98
2018-07-23T03:47:26.604Z,83.94
2018-07-23T03:49:55.910Z,84.61
2018-07-23T03:52:25.108Z,84.50
2018-07-23T03:54:54.304Z,84.77
2018-07-23T03:57:23.803Z,84.59
2018-07-23T03:59:52.998Z,83.65
2018-07-23T04:02:22.191Z,83.56
2018-07-23T04:04:51.395Z,83.68
2018-07-23T04:07:20.575Z,83.78
2018-07-23T04:09:49.787Z,83.31
2018-07-23T04:12:19.100Z,83.50
2018-07-23T04:14:48.611Z,83.90
2018-07-23T04:17:17.791Z,83.32
2018-07-23T04:19:47.087Z,82.83
2018-07-23T04:22:16.302Z,82.74
2018-07-23T04:24:45.618Z,83.06
2018-07-23T04:27:22.104Z,82.73
2018-07-23T04:29:54.099Z,83.19
2018-07-23T04:32:23.314Z,82.35
2018-07-23T04:34:52.671Z,82.10
2018-07-23T04:37:21.887Z,81.80
2018-07-23T04:39:51.084Z,81.59
2018-07-23T04:42:20.269Z,81.28
2018-07-23T04:44:49.489Z,81.42
2018-07-23T04:47:19.014Z,81.32
2018-07-23T04:49:48.207Z,80.62
2018-07-23T04:52:17.859Z,80.68
2018-07-23T04:54:49.402Z,80.59
2018-07-23T04:57:20.959Z,80.31
2018-07-23T04:59:51.286Z,80.37
2018-07-23T05:02:20.510Z,79.89
2018-07-23T05:04:49.711Z,79.04
2018-07-23T05:07:18.951Z,79.07
2018-07-23T05:09:48.162Z,78.50
2018-07-23T05:12:17.519Z,78.50
2018-07-23T05:14:46.726Z,77.68
2018-07-23T05:17:15.991Z,77.76
2018-07-23T05:19:45.443Z,77.19
2018-07-23T05:22:15.017Z,76.96
2018-07-23T05:24:44.235Z,76.17
2018-07-23T05:27:13.428Z,76.86
2018-07-23T05:29:42.626Z,76.07
2018-07-23T05:32:11.992Z,76.20
2018-07-23T05:34:41.343Z,74.48
2018-07-23T05:37:10.528Z,74.43
2018-07-23T05:39:39.736Z,74.20
2018-07-23T05:42:08.919Z,74.74
2018-07-23T05:44:38.439Z,74.22
2018-07-23T05:47:07.654Z,73.24
2018-07-23T05:49:37.014Z,73.20
2018-07-23T05:52:06.234Z,72.68
2018-07-23T05:54:36.207Z,71.16
2018-07-23T05:57:05.555Z,70.89
2018-07-23T05:59:34.746Z,70.38
2018-07-23T06:02:04.079Z,68.71
2018-07-23T06:04:33.300Z,65.94
2018-07-23T06:07:02.934Z,62.94
2018-07-23T06:09:32.026Z,60.41
2018-07-23T06:12:01.265Z,59.54
2018-07-23T06:14:30.446Z,57.54
2018-07-23T06:16:59.655Z,56.21
2018-07-23T06:19:29.490Z,55.59
2018-07-23T06:21:59.011Z,54.18
2018-07-23T06:24:28.195Z,53.04
2018-07-23T06:26:57.525Z,53.25
2018-07-23T06:29:26.746Z,50.08
2018-07-23T06:31:55.959Z,50.21
2018-07-23T06:34:25.146Z,48.89
2018-07-23T06:36:55.333Z,46.97
2018-07-23T06:39:24.533Z,46.53
2018-07-23T06:41:53.964Z,45.27
2018-07-23T06:44:23.139Z,45.88
2018-07-23T06:46:52.347Z,45.09
2018-07-23T06:49:21.535Z,44.67
2018-07-23T06:51:50.732Z,45.11
2018-07-23T06:54:19.903Z,45.65
2018-07-23T06:56:49.095Z,44.31
2018-07-23T07:00:20.851Z,42.48
2018-07-23T07:02:50.031Z,42.59
2018-07-23T07:05:19.210Z,40.21
2018-07-23T07:07:48.511Z,40.71
2018-07-23T07:10:17.679Z,39.63
2018-07-23T07:12:46.996Z,39.53
2018-07-23T07:15:16.187Z,37.76
2018-07-23T07:17:45.411Z,37.84
2018-07-23T07:20:14.591Z,36.84
2018-07-23T07:22:43.790Z,37.92
2018-07-23T07:25:12.986Z,37.57
2018-07-23T07:27:42.236Z,37.47
2018-07-23T07:30:11.719Z,37.40
2018-07-23T07:32:40.927Z,35.75
2018-07-23T07:35:10.091Z,35.64
2018-07-23T07:37:39.279Z,34.13
2018-07-23T07:40:08.461Z,32.86
2018-07-23T07:42:37.699Z,35.56
2018-07-23T07:45:07.561Z,37.08
2018-07-23T07:47:36.777Z,32.22
2018-07-23T07:50:05.995Z,32.69
2018-07-23T07:52:35.195Z,32.80
2018-07-23T07:55:04.432Z,31.38
2018-07-23T07:57:33.971Z,30.71
2018-07-23T08:00:03.548Z,31.11
2018-07-23T08:02:32.754Z,29.59
2018-07-23T08:05:01.928Z,31.53
2018-07-23T08:07:31.123Z,32.75
2018-07-23T08:10:00.495Z,31.64
2018-07-23T08:12:29.729Z,29.38
2018-07-23T08:14:58.884Z,29.48
2018-07-23T08:17:28.106Z,28.75
2018-07-23T08:19:57.303Z,27.95
2018-07-23T08:22:26.973Z,30.29
2018-07-23T08:24:56.651Z,27.17
2018-07-23T08:27:25.879Z,29.26
2018-07-23T08:29:55.051Z,26.35
2018-07-23T08:32:24.313Z,27.43
2018-07-23T08:34:53.511Z,27.86
2018-07-23T08:37:22.715Z,28.40
2018-07-23T08:39:51.875Z,26.71
2018-07-23T08:42:21.067Z,24.60
2018-07-23T08:44:50.332Z,25.34
2018-07-23T08:47:19.450Z,24.28
2018-07-23T08:49:48.993Z,22.36
2018-07-23T08:52:18.183Z,24.42
2018-07-23T08:54:47.359Z,24.03
2018-07-23T08:57:16.586Z,25.30
2018-07-23T08:59:45.711Z,25.52
2018-07-23T09:02:15.072Z,23.97
2018-07-23T09:04:44.194Z,24.63
2018-07-23T09:07:13.395Z,23.74
2018-07-23T09:09:42.564Z,22.87
2018-07-23T09:12:11.766Z,24.12
2018-07-23T09:14:40.942Z,23.13
2018-07-23T09:17:11.318Z,22.94
2018-07-23T09:19:41.451Z,21.68
2018-07-23T09:22:11.229Z,23.99
2018-07-23T09:24:40.399Z,23.28
2018-07-23T09:27:09.607Z,24.86
2018-07-23T09:29:38.790Z,24.48
2018-07-23T09:32:07.987Z,23.95
2018-07-23T09:34:37.305Z,22.41
2018-07-23T09:37:06.556Z,20.96
2018-07-23T09:39:36.095Z,22.29
2018-07-23T09:42:05.305Z,21.15
2018-07-23T09:44:34.478Z,21.55
2018-07-23T09:47:03.686Z,19.87
2018-07-23T09:49:32.868Z,19.58
2018-07-23T09:52:02.077Z,18.45
2018-07-23T09:54:31.565Z,20.72
2018-07-23T09:57:00.968Z,24.76
2018-07-23T09:59:30.131Z,23.84
2018-07-23T10:01:59.339Z,24.73
2018-07-23T10:04:28.515Z,20.53
2018-07-23T10:06:57.690Z,20.90
2018-07-23T10:09:26.859Z,21.16
2018-07-23T10:11:56.119Z,19.88
2018-07-23T10:14:25.848Z,22.46
2018-07-23T10:16:55.071Z,23.60
2018-07-23T10:19:24.572Z,23.21
2018-07-23T10:21:54.072Z,22.60
2018-07-23T10:24:23.574Z,24.72
2018-07-23T10:26:52.755Z,23.12
2018-07-23T10:29:22.925Z,20.81
2018-07-23T10:31:52.091Z,24.44
2018-07-23T10:34:21.284Z,24.98
2018-07-23T10:36:50.616Z,24.04
2018-07-23T10:39:20.095Z,21.68
2018-07-23T10:41:49.647Z,23.20
2018-07-23T10:44:18.860Z,22.07
2018-07-23T10:46:48.103Z,23.35
2018-07-23T10:49:17.605Z,26.36
2018-07-23T10:51:46.786Z,25.89
2018-07-23T10:54:15.966Z,25.76
2018-07-23T10:56:45.171Z,23.28
2018-07-23T10:59:14.374Z,22.33
2018-07-23T11:01:43.575Z,22.58
2018-07-23T11:04:13.221Z,26.35
2018-07-23T11:06:42.919Z,27.59
2018-07-23T11:09:12.099Z,27.90
2018-07-23T11:11:41.758Z,25.33
2018-07-23T11:14:10.941Z,28.39
2018-07-23T11:16:40.128Z,31.36
2018-07-23T11:19:09.367Z,31.94
2018-07-23T11:21:38.551Z,31.66
2018-07-23T11:24:07.743Z,28.74
2018-07-23T11:26:36.927Z,26.94
2018-07-23T11:29:06.216Z,25.32
2018-07-23T11:31:35.412Z,25.02
2018-07-23T11:34:04.920Z,25.19
2018-07-23T11:36:34.104Z,25.95
2018-07-23T11:39:03.663Z,24.90
2018-07-23T11:41:32.878Z,23.70
2018-07-23T11:44:02.047Z,24.78
2018-07-23T11:46:31.250Z,25.94
2018-07-23T11:49:00.466Z,28.24
2018-07-23T11:51:29.639Z,29.79
2018-07-23T11:53:59.754Z,30.27
2018-07-23T11:56:28.959Z,30.80
2018-07-23T11:58:58.198Z,32.17
2018-07-23T12:01:27.492Z,32.95
2018-07-23T12:03:56.677Z,31.81
2018-07-23T12:06:26.135Z,26.31
2018-07-23T12:08:55.340Z,24.82
2018-07-23T12:11:24.519Z,26.21
2018-07-23T12:13:53.713Z,24.64
2018-07-23T12:16:22.970Z,23.02
2018-07-23T12:18:52.159Z,22.05
2018-07-23T12:21:21.459Z,22.42
2018-07-23T12:23:50.647Z,26.87
2018-07-23T12:26:19.842Z,24.92
2018-07-23T12:28:49.154Z,23.58
2018-07-23T12:31:18.723Z,23.66
2018-07-23T12:33:48.670Z,23.50
2018-07-23T12:36:18.232Z,24.39
2018-07-23T12:38:47.430Z,23.98
2018-07-23T12:41:16.603Z,26.15
2018-07-23T12:43:45.799Z,27.62
2018-07-23T12:46:14.988Z,24.95
2018-07-23T12:48:44.239Z,23.91
2018-07-23T12:51:13.531Z,23.79
2018-07-23T12:53:42.707Z,23.29
2018-07-23T12:56:12.536Z,22.57
2018-07-23T12:58:41.727Z,24.03
2018-07-23T13:01:10.898Z,24.95
2018-07-23T13:03:40.182Z,28.10
2018-07-23T13:06:09.363Z,27.95
2018-07-23T13:08:38.550Z,29.99
2018-07-23T13:11:08.136Z,29.35
2018-07-23T13:13:37.326Z,30.73
2018-07-23T13:16:06.551Z,32.31
2018-07-23T13:18:36.031Z,32.03
2018-07-23T13:21:05.199Z,32.35
2018-07-23T13:23:34.395Z,32.19
2018-07-23T13:26:03.646Z,32.88
2018-07-23T13:28:32.860Z,33.70
2018-07-23T13:31:02.042Z,32.25
2018-07-23T13:33:31.238Z,30.66
2018-07-23T13:36:00.558Z,26.71
2018-07-23T13:38:29.759Z,27.51
2018-07-23T13:40:58.958Z,28.19
2018-07-23T13:43:28.162Z,28.99
2018-07-23T13:45:57.331Z,29.63
2018-07-23T13:48:26.531Z,31.57
2018-07-23T13:50:56.012Z,33.42
2018-07-23T13:53:25.205Z,34.70
2018-07-23T13:55:54.596Z,34.95
2018-07-23T13:58:24.240Z,34.80
2018-07-23T14:00:53.706Z,35.41
2018-07-23T14:03:23.231Z,36.42
2018-07-23T14:05:52.568Z,36.40
2018-07-23T14:08:21.759Z,35.55
2018-07-23T14:10:50.940Z,37.14
2018-07-23T14:13:20.572Z,36.76
2018-07-23T14:15:49.735Z,36.76
2018-07-23T14:18:19.240Z,36.42
2018-07-23T14:20:49.074Z,36.50
2018-07-23T14:23:48.611Z,37.07
2018-07-23T14:26:17.768Z,36.54
2018-07-23T14:28:46.949Z,37.84
2018-07-23T14:31:16.131Z,37.49
2018-07-23T14:33:45.298Z,36.79
2018-07-23T14:36:14.491Z,37.48
2018-07-23T14:38:43.925Z,37.60
2018-07-23T14:41:13.095Z,37.81
2018-07-23T14:43:42.432Z,36.37
2018-07-23T14:46:11.898Z,36.41
2018-07-23T14:48:41.063Z,35.46
2018-07-23T14:51:10.436Z,36.29
2018-07-23T14:53:39.857Z,37.78
2018-07-23T14:56:09.806Z,36.90
2018-07-23T14:58:39.027Z,36.70
2018-07-23T15:01:08.511Z,36.65
2018-07-23T15:03:37.724Z,35.48
2018-07-23T15:06:07.216Z,35.77
2018-07-23T15:08:36.366Z,37.02
2018-07-23T15:11:05.707Z,35.30
2018-07-23T15:13:35.859Z,35.42
2018-07-23T15:16:05.046Z,35.61
2018-07-23T15:18:34.455Z,35.22
2018-07-23T15:21:03.895Z,34.03
2018-07-23T15:23:33.606Z,32.81
2018-07-23T15:26:03.513Z,31.92
2018-07-23T15:28:32.665Z,32.89
2018-07-23T15:31:01.854Z,32.19
2018-07-23T15:33:31.016Z,33.03
2018-07-23T15:36:00.204Z,33.60
2018-07-23T15:38:29.359Z,34.11
2018-07-23T15:40:58.545Z,35.10
2018-07-23T15:43:27.994Z,34.32
2018-07-23T15:45:57.880Z,34.20
2018-07-23T15:48:27.195Z,31.80
2018-07-23T15:50:56.378Z,31.82
2018-07-23T15:53:26.157Z,34.06
2018-07-23T15:55:57.476Z,33.85
2018-07-23T15:58:26.631Z,33.27
2018-07-23T16:00:55.826Z,33.13
2018-07-23T16:03:25.015Z,34.55
2018-07-23T16:05:54.184Z,34.77
2018-07-23T16:08:23.343Z,34.79
2018-07-23T16:10:52.529Z,34.54
2018-07-23T16:13:21.678Z,33.25
2018-07-23T16:15:50.876Z,34.22
2018-07-23T16:18:20.031Z,34.11
2018-07-23T16:20:49.463Z,32.25
2018-07-23T16:23:18.614Z,34.11
2018-07-23T16:25:47.795Z,33.80
2018-07-23T16:28:16.970Z,35.09
2018-07-23T16:30:48.418Z,34.93
2018-07-23T16:33:17.595Z,34.15
2018-07-23T16:35:46.794Z,34.77
2018-07-23T16:38:15.996Z,35.17
2018-07-23T16:40:45.172Z,36.09
2018-07-23T16:43:14.379Z,36.07
2018-07-23T16:45:43.558Z,36.78
2018-07-23T16:48:12.714Z,35.87
2018-07-23T16:50:42.110Z,36.01
2018-07-23T16:53:11.287Z,37.12
2018-07-23T16:55:40.608Z,36.41
2018-07-23T16:58:10.938Z,36.60
2018-07-23T17:00:40.124Z,35.95
2018-07-23T17:03:09.258Z,36.70
2018-07-23T17:05:38.492Z,36.26
2018-07-23T17:08:07.650Z,37.39
2018-07-23T17:10:36.828Z,37.68
2018-07-23T17:13:06.054Z,38.49
2018-07-23T17:15:35.674Z,39.13
2018-07-23T17:18:04.927Z,38.39
2018-07-23T17:20:34.679Z,37.86
2018-07-23T17:23:04.490Z,38.77
2018-07-23T17:25:33.642Z,38.23
2018-07-23T17:28:02.815Z,38.91
2018-07-23T17:30:32.002Z,38.46
2018-07-23T17:33:01.171Z,38.71
2018-07-23T17:35:30.352Z,38.72
2018-07-23T17:37:59.491Z,39.62
2018-07-23T17:40:28.690Z,39.56
2018-07-23T17:42:57.846Z,39.12
2018-07-23T17:45:27.027Z,39.34
2018-07-23T17:47:56.190Z,39.67
2018-07-23T17:50:25.702Z,40.49
2018-07-23T17:52:55.094Z,39.60
2018-07-23T17:55:24.274Z,40.70
2018-07-23T17:57:54.959Z,39.96
2018-07-23T18:00:24.238Z,40.18
2018-07-23T18:02:53.410Z,41.24
2018-07-23T18:05:22.595Z,41.56
2018-07-23T18:07:51.747Z,41.25
2018-07-23T18:10:20.918Z,40.99
2018-07-23T18:12:50.090Z,41.27
2018-07-23T18:15:19.272Z,41.49
2018-07-23T18:17:48.472Z,41.55
2018-07-23T18:20:17.616Z,41.68
2018-07-23T18:22:46.766Z,42.61
2018-07-23T18:25:16.229Z,42.11
2018-07-23T18:27:45.650Z,43.53
2018-07-23T18:30:14.874Z,43.35
2018-07-23T18:32:44.167Z,43.08
2018-07-23T18:35:13.339Z,44.10
2018-07-23T18:37:42.575Z,42.93
2018-07-23T18:40:11.705Z,43.71
2018-07-23T18:42:41.206Z,45.85
2018-07-23T18:45:11.017Z,46.39
2018-07-23T18:47:40.207Z,46.46
2018-07-23T18:50:09.363Z,47.30
2018-07-23T18:52:38.582Z,46.86
2018-07-23T18:55:07.734Z,46.89
2018-07-23T18:57:37.134Z,48.04
2018-07-23T19:00:06.550Z,49.62
2018-07-23T19:02:35.723Z,49.54
2018-07-23T19:05:05.622Z,49.51
2018-07-23T19:07:34.803Z,49.82
2018-07-23T19:10:04.262Z,50.42
2018-07-23T19:12:33.449Z,51.44
2018-07-23T19:15:02.601Z,52.21
2018-07-23T19:17:31.790Z,52.64
2018-07-23T19:20:01.065Z,53.25
2018-07-23T19:22:30.267Z,53.97
2018-07-23T19:24:59.434Z,54.54
2018-07-23T19:27:28.634Z,54.94
2018-07-23T19:29:57.778Z,54.89
2018-07-23T19:32:28.802Z,55.05
2018-07-23T19:34:57.946Z,56.17
2018-07-23T19:37:27.119Z,57.38
2018-07-23T19:39:56.287Z,57.33
2018-07-23T19:44:53.743Z,58.48
2018-07-23T19:47:22.914Z,58.67
2018-07-23T19:49:52.066Z,58.73
2018-07-23T19:52:21.259Z,59.68
2018-07-23T19:54:50.771Z,60.66
2018-07-23T19:57:20.058Z,61.25
2018-07-23T19:59:50.039Z,60.36
2018-07-23T20:02:19.245Z,61.52
2018-07-23T20:04:48.422Z,62.03
2018-07-23T20:07:17.598Z,62.25
2018-07-23T20:09:46.767Z,62.10
2018-07-23T20:12:15.943Z,62.34
2018-07-23T20:14:45.538Z,63.56
2018-07-23T20:17:15.866Z,62.82
2018-07-23T20:19:45.051Z,63.21
2018-07-23T20:22:14.290Z,63.54
2018-07-23T20:24:44.687Z,63.83
2018-07-23T20:27:13.891Z,63.75
2018-07-23T20:29:44.378Z,64.41
2018-07-23T20:32:13.674Z,64.70
2018-07-23T20:34:42.958Z,65.27
2018-07-23T20:37:12.112Z,65.79
2018-07-23T20:39:41.595Z,66.86
2018-07-23T20:42:10.899Z,67.25
2018-07-23T20:44:40.155Z,66.38
2018-07-23T20:47:09.291Z,67.22
2018-07-23T20:49:39.183Z,67.15
2018-07-23T20:52:08.436Z,67.85
2018-07-23T20:54:37.667Z,68.35
2018-07-23T20:57:06.859Z,68.32
2018-07-23T20:59:36.047Z,68.44
2018-07-23T21:02:05.347Z,69.11
2018-07-23T21:04:34.726Z,69.80
2018-07-23T21:07:03.931Z,69.25
2018-07-23T21:09:33.123Z,69.71
2018-07-23T21:12:02.323Z,69.84
2018-07-23T21:14:31.516Z,69.96
2018-07-23T21:17:01.623Z,70.41
2018-07-23T21:19:30.826Z,70.54
2018-07-23T21:22:00.825Z,69.93
2018-07-23T21:24:30.282Z,70.58
2018-07-23T21:26:59.498Z,71.51
2018-07-23T21:29:28.668Z,70.43
2018-07-23T21:31:57.859Z,70.99
2018-07-23T21:34:27.238Z,71.30
2018-07-23T21:36:56.455Z,70.94
2018-07-23T21:39:25.623Z,71.06
2018-07-23T21:41:54.857Z,71.49
2018-07-23T21:44:24.247Z,72.04
2018-07-23T21:46:53.474Z,72.64
2018-07-23T21:49:22.711Z,72.47
2018-07-23T21:51:51.903Z,72.01
2018-07-23T21:54:21.094Z,72.13
2018-07-23T21:56:50.352Z,72.30
2018-07-23T21:59:19.570Z,72.33
2018-07-23T22:01:48.810Z,72.70
2018-07-23T22:04:18.443Z,73.49
2018-07-23T22:06:48.415Z,73.40
2018-07-23T22:09:18.127Z,73.43
2018-07-23T22:11:47.319Z,73.61
2018-07-23T22:14:16.511Z,73.68
2018-07-23T22:16:45.932Z,73.29
2018-07-23T22:19:15.117Z,73.71
2018-07-23T22:21:44.387Z,73.50
2018-07-23T22:24:13.938Z,73.70
2018-07-23T22:26:43.102Z,74.16
2018-07-23T22:29:12.411Z,74.11
2018-07-23T22:31:41.575Z,74.29
2018-07-23T22:34:10.774Z,74.53
2018-07-23T22:36:39.938Z,74.60
2018-07-23T22:39:10.710Z,74.74
2018-07-23T22:41:40.603Z,73.85
2018-07-23T22:44:09.808Z,74.34
2018-07-23T22:46:38.987Z,74.34
2018-07-23T22:49:08.326Z,73.85
2018-07-23T22:51:37.499Z,73.89
2018-07-23T22:54:06.718Z,74.69
2018-07-23T22:56:35.963Z,74.43
2018-07-23T22:59:05.448Z,74.82
2018-07-23T23:01:35.067Z,74.68
2018-07-23T23:04:04.279Z,75.36
2018-07-23T23:06:33.450Z,74.98
2018-07-23T23:09:02.656Z,74.92
2018-07-23T23:11:31.954Z,74.70
2018-07-23T23:14:01.139Z,74.90
2018-07-23T23:16:30.718Z,75.20
2018-07-23T23:18:59.981Z,75.38
2018-07-23T23:21:29.195Z,75.28
2018-07-23T23:23:58.374Z,75.05
2018-07-23T23:26:27.978Z,75.02
2018-07-23T23:28:57.291Z,74.79
2018-07-23T23:31:26.462Z,75.20
2018-07-23T23:33:55.654Z,76.09
2018-07-23T23:36:25.239Z,76.19
2018-07-23T23:38:54.518Z,76.80
2018-07-23T23:41:24.044Z,76.21
2018-07-23T23:43:53.210Z,76.14
2018-07-23T23:46:22.883Z,76.23
2018-07-23T23:48:52.093Z,75.94
2018-07-23T23:51:21.246Z,76.20
2018-07-23T23:53:50.418Z,75.86
2018-07-23T23:56:19.573Z,76.76
2018-07-23T23:58:48.763Z,77.19
